Detall de PIREP

Printer-friendly versionPDF version

[2017/05/13 14:55:00]
Flight IATA:CT1061
Pilot Number:012
Company ICAO:CAT
Aircraft Type:DC85/A
PAX:132
Aircraft Registration:PAX
Departing Airport: LEAL
Destination Airport: LICJ
Alternate Airport:LIRF
Online: VATSIM
Route:MITOS UN851 MHN UM603 ELSAG ALG POKAV L12 GIANO
Flight Level:F320
No Slew and time accel
No pause
Crash detect
Detect pilot in Cockpit between each 30 and 45 minutes
14:55 Zero fuel Weight: 172867 Lbs, Fuel Weight: 47537 Lbs
14:55 VATSIM:LEAL 131430Z 18011KT 130V230 9999 FEW035 25/12 Q1016 NOSIG
14:55 VATSIM:LICJ 131420Z 03014KT CAVOK 21/20 Q1018
14:56 ALMOGÀVERS ROUTE
15:01 Parking Brakes off
15:06 Take-off
15:06 Take off Weight: 219356 Lbs
15:06 Wind: 169º @ 011 Knots Heading: 101º
15:06 POS N38º 16´ 54´´ W000º 33´ 20´´
15:06 Flaps:2 at 163 Knots
15:06 Gear Up: 165 Knots
15:07 Flaps:1 at 203 Knots
15:07 Flaps:0 at 202 Knots
15:19 TOC
15:19 Fuel Weight: 42067 Lb
15:21 Wind:255º@046 Knots Heading: 068º Ground Speed: 509 Knots Altitude 32106 ft
15:36 Wind:240º@066 Knots Heading: 058º Ground Speed: 562 Knots Altitude 32099 ft
15:51 Wind:242º@075 Knots Heading: 076º Ground Speed: 568 Knots Altitude 32089 ft
16:06 Wind:244º@098 Knots Heading: 088º Ground Speed: 590 Knots Altitude 32103 ft
16:21 Wind:247º@098 Knots Heading: 169º Ground Speed: 486 Knots Altitude 32073 ft
16:28 TOD
16:28 Fuel Weight: 24333 Lb
16:36 Wind:248º@050 Knots Heading: 050º Ground Speed: 347 Knots Altitude 16696 ft
16:39 Flaps:1 at 228 Knots
16:42 Flaps:2 at 210 Knots
16:43 Flaps:3 at 203 Knots
16:44 Flaps:4 at 188 Knots
16:45 Gear Down: 182 Knots
16:45 Flaps:5 at 143 Knots
16:48 TouchDown:Rate -262 ft/min Speed: 135 Knots
16:48 Flaps:1 at 67 Knots
16:48 Flaps:0 at 67 Knots
16:48 VATSIM:LICJ 131620Z 06016KT CAVOK 22/17 Q1017
16:48 Land
16:48 Wind:047º@016 Knots
16:48 Heading: 058º
16:48 Flight Duration: 01:42
16:48 Landing Weight: 195236 Lbs
16:48 POS N38º 10´ 49´´ E013º 06´ 18´´
16:51 Parking brakes on
16:51 Block to Block Duration: 01:50
16:51 Final Fuel: 21997 Lbls
16:51 Spent Fuel: 25540 Lbls
16:51 Flight Length: 803 NM
16:51 TOD Land Length: 96 NM

Exportar CSV

Powered by Drupal - Modified by Danger4k